createdAt,value
2023-04-17T00:02:20.123Z,8.90
2023-04-17T00:04:48.647Z,9.40
2023-04-17T00:07:16.670Z,7.40
2023-04-17T00:09:44.282Z,9.40
2023-04-17T00:12:11.920Z,8.60
2023-04-17T00:14:39.606Z,7.80
2023-04-17T00:17:07.724Z,8.60
2023-04-17T00:19:35.467Z,8.70
2023-04-17T00:22:03.140Z,8.60
2023-04-17T00:24:31.171Z,9.30
2023-04-17T00:26:58.815Z,9.50
2023-04-17T00:29:26.433Z,9.10
2023-04-17T00:31:54.106Z,9.10
2023-04-17T00:34:21.791Z,7.30
2023-04-17T00:36:49.851Z,8.40
2023-04-17T00:39:17.660Z,7.90
2023-04-17T00:41:45.473Z,7.80
2023-04-17T00:44:14.042Z,8.10
2023-04-17T00:46:42.000Z,7.90
2023-04-17T00:49:10.998Z,7.70
2023-04-17T00:51:38.800Z,7.50
2023-04-17T00:54:07.401Z,7.90
2023-04-17T00:56:35.506Z,8.80
2023-04-17T00:59:06.097Z,9.40
2023-04-17T01:01:33.872Z,9.40
2023-04-17T01:04:07.520Z,7.80
2023-04-17T01:06:36.544Z,7.10
2023-04-17T01:09:04.281Z,8.60
2023-04-17T01:11:32.033Z,8.40
2023-04-17T01:14:00.291Z,7.70
2023-04-17T01:16:30.692Z,7.50
2023-04-17T01:18:59.649Z,7.60
2023-04-17T01:21:27.655Z,8.00
2023-04-17T01:24:02.580Z,8.20
2023-04-17T01:26:32.721Z,7.20
2023-04-17T01:29:00.849Z,7.50
2023-04-17T01:33:57.910Z,6.90
2023-04-17T01:36:25.612Z,7.40
2023-04-17T01:38:53.232Z,8.00
2023-04-17T01:41:20.915Z,8.20
2023-04-17T01:43:48.973Z,7.70
2023-04-17T01:46:16.657Z,7.90
2023-04-17T01:48:44.623Z,8.60
2023-04-17T01:51:12.312Z,7.90
2023-04-17T01:53:40.093Z,7.70
2023-04-17T01:56:07.932Z,8.20
2023-04-17T01:58:36.015Z,7.20
2023-04-17T02:01:04.204Z,7.40
2023-04-17T02:03:32.172Z,7.50
2023-04-17T02:06:00.124Z,8.30
2023-04-17T02:08:27.840Z,6.80
2023-04-17T02:10:56.033Z,6.70
2023-04-17T02:13:24.130Z,7.10
2023-04-17T02:15:52.256Z,7.90
2023-04-17T02:18:20.766Z,7.00
2023-04-17T02:20:48.915Z,6.70
2023-04-17T02:23:16.627Z,5.80
2023-04-17T02:25:44.249Z,7.50
2023-04-17T02:28:11.934Z,8.20
2023-04-17T02:30:39.723Z,7.70
2023-04-17T02:33:07.553Z,7.70
2023-04-17T02:35:35.459Z,8.10
2023-04-17T02:38:03.280Z,7.60
2023-04-17T02:40:33.140Z,7.70
2023-04-17T02:43:02.484Z,8.40
2023-04-17T02:45:30.783Z,7.80
2023-04-17T02:47:58.633Z,7.50
2023-04-17T02:50:26.603Z,6.90
2023-04-17T02:53:05.176Z,7.70
2023-04-17T02:55:32.985Z,7.80
2023-04-17T02:58:00.932Z,8.10
2023-04-17T03:00:29.532Z,7.90
2023-04-17T03:02:57.500Z,8.30
2023-04-17T03:05:25.880Z,8.50
2023-04-17T03:07:54.681Z,7.40
2023-04-17T03:10:22.585Z,7.80
2023-04-17T03:12:50.379Z,7.60
2023-04-17T03:15:18.067Z,7.10
2023-04-17T03:17:46.108Z,8.60
2023-04-17T03:44:19.454Z,7.70
2023-04-17T03:46:47.195Z,6.60
2023-04-17T03:49:15.452Z,6.50
2023-04-17T03:51:43.856Z,6.30
2023-04-17T03:54:16.168Z,6.50
2023-04-17T03:56:44.582Z,6.50
2023-04-17T03:59:12.633Z,7.20
2023-04-17T04:01:45.375Z,6.90
2023-04-17T04:04:18.644Z,7.30
2023-04-17T04:33:36.968Z,10.70
2023-04-17T04:36:03.704Z,8.60
2023-04-17T04:38:31.881Z,8.20
2023-04-17T04:41:05.260Z,7.30
2023-04-17T04:43:32.894Z,8.50
2023-04-17T04:46:00.051Z,8.40
2023-04-17T04:48:28.282Z,8.40
2023-04-17T04:50:57.470Z,7.90
2023-04-17T04:53:24.295Z,9.20
2023-04-17T04:55:56.740Z,7.40
2023-04-17T04:58:23.345Z,9.00
2023-04-17T05:00:51.590Z,7.00
2023-04-17T05:03:25.743Z,7.00
2023-04-17T05:05:52.704Z,7.10
2023-04-17T05:08:19.623Z,7.00
2023-04-17T05:10:52.756Z,5.00
2023-04-17T05:13:19.222Z,6.90
2023-04-17T05:15:45.520Z,8.60
2023-04-17T05:18:12.116Z,7.40
2023-04-17T05:20:38.627Z,6.30
2023-04-17T05:23:05.493Z,7.00
2023-04-17T05:25:31.818Z,8.90
2023-04-17T05:27:58.288Z,6.80
2023-04-17T05:30:24.617Z,5.20
2023-04-17T05:32:59.054Z,6.90
2023-04-17T05:35:41.159Z,6.40
2023-04-17T05:38:09.043Z,7.40
2023-04-17T05:40:35.753Z,7.00
2023-04-17T05:43:10.440Z,6.40
2023-04-17T05:45:38.416Z,6.90
2023-04-17T05:48:07.897Z,6.90
2023-04-17T05:50:36.708Z,6.80
2023-04-17T05:53:03.872Z,6.40
2023-04-17T05:55:33.745Z,7.80
2023-04-17T05:58:10.530Z,7.70
2023-04-17T06:00:47.919Z,7.10
2023-04-17T06:03:18.198Z,7.40
2023-04-17T06:05:46.298Z,8.70
2023-04-17T06:08:12.620Z,8.10
2023-04-17T06:10:38.998Z,7.70
2023-04-17T06:13:05.280Z,7.70
2023-04-17T06:15:31.558Z,7.30
2023-04-17T06:17:57.918Z,8.20
2023-04-17T06:20:24.214Z,7.80
2023-04-17T06:22:50.547Z,6.50
2023-04-17T06:25:17.592Z,7.10
2023-04-17T06:27:45.135Z,9.10
2023-04-17T06:30:12.429Z,8.00
2023-04-17T06:32:49.973Z,8.30
2023-04-17T06:35:18.477Z,8.30
2023-04-17T06:37:48.484Z,7.60
2023-04-17T06:40:14.788Z,9.80
2023-04-17T06:42:41.049Z,7.70
2023-04-17T06:45:11.646Z,7.90
2023-04-17T06:47:38.113Z,7.90
2023-04-17T06:50:05.129Z,8.10
2023-04-17T06:52:31.405Z,8.10
2023-04-17T06:54:57.879Z,8.50
2023-04-17T06:57:24.234Z,8.90
2023-04-17T06:59:50.790Z,8.50
2023-04-17T07:02:17.316Z,9.50
2023-04-17T07:04:43.941Z,10.20
2023-04-17T07:07:10.430Z,7.70
2023-04-17T07:09:36.687Z,9.80
2023-04-17T07:12:03.169Z,8.70
2023-04-17T07:14:30.020Z,10.30
2023-04-17T07:16:56.282Z,9.10
2023-04-17T07:19:22.675Z,11.00
2023-04-17T07:21:48.877Z,11.10
2023-04-17T07:24:15.160Z,9.40
2023-04-17T07:26:42.672Z,11.20
2023-04-17T07:29:08.928Z,11.60
2023-04-17T07:31:35.375Z,11.80
2023-04-17T07:34:01.713Z,9.70
2023-04-17T07:36:29.191Z,10.60
2023-04-17T07:38:55.404Z,11.40
2023-04-17T07:41:21.683Z,9.10
2023-04-17T07:43:48.533Z,13.30
2023-04-17T07:46:14.813Z,10.30
2023-04-17T07:48:41.153Z,10.90
2023-04-17T07:51:07.527Z,8.30
2023-04-17T07:53:35.550Z,8.40
2023-04-17T07:56:01.916Z,8.30
2023-04-17T07:58:28.384Z,8.60
2023-04-17T08:00:54.756Z,7.20
2023-04-17T08:03:21.796Z,8.60
2023-04-17T08:05:48.648Z,9.60
2023-04-17T08:08:15.468Z,8.70
2023-04-17T08:10:41.687Z,8.90
2023-04-17T08:13:07.922Z,7.50
2023-04-17T08:15:34.421Z,8.60
2023-04-17T08:18:00.817Z,8.30
2023-04-17T08:20:27.403Z,9.60
2023-04-17T08:22:53.674Z,7.70
2023-04-17T08:25:20.416Z,7.60
2023-04-17T08:27:47.000Z,10.00
2023-04-17T08:30:16.225Z,8.50
2023-04-17T08:32:46.646Z,9.50
2023-04-17T08:35:14.297Z,8.30
2023-04-17T08:37:42.029Z,8.70
2023-04-17T08:40:09.156Z,9.20
2023-04-17T08:42:36.965Z,7.90
2023-04-17T08:45:08.896Z,11.10
2023-04-17T08:47:39.182Z,6.70
2023-04-17T08:50:15.234Z,9.10
2023-04-17T08:52:43.162Z,9.60
2023-04-17T08:55:19.107Z,9.10
2023-04-17T08:58:03.189Z,9.40
2023-04-17T09:00:33.825Z,8.60
2023-04-17T09:03:03.324Z,8.80
2023-04-17T09:05:35.954Z,8.40
2023-04-17T09:08:07.271Z,8.60
2023-04-17T09:10:42.617Z,8.90
2023-04-17T09:13:11.508Z,7.50
2023-04-17T09:15:37.825Z,7.50
2023-04-17T09:18:04.337Z,8.00
2023-04-17T09:20:31.256Z,7.70
2023-04-17T09:23:00.272Z,8.50
2023-04-17T09:25:27.600Z,8.50
2023-04-17T09:28:00.784Z,8.20
2023-04-17T09:30:27.080Z,7.60
2023-04-17T09:33:04.595Z,6.70
2023-04-17T09:35:32.761Z,5.90
2023-04-17T09:37:59.387Z,7.20
2023-04-17T09:40:27.997Z,7.70
2023-04-17T09:42:58.456Z,7.70
2023-04-17T09:45:27.513Z,6.80
2023-04-17T09:47:56.526Z,6.70
2023-04-17T09:50:26.342Z,7.50
2023-04-17T09:52:55.225Z,6.30
2023-04-17T09:55:23.407Z,8.10
2023-04-17T09:57:55.375Z,7.50
2023-04-17T10:00:24.886Z,7.40
2023-04-17T10:02:53.471Z,7.50
2023-04-17T10:05:22.084Z,6.70
2023-04-17T10:07:48.738Z,7.00
2023-04-17T10:10:32.638Z,8.10
2023-04-17T10:13:01.730Z,7.30
2023-04-17T10:15:29.841Z,7.60
2023-04-17T10:18:19.128Z,7.70
2023-04-17T10:20:47.978Z,7.20
2023-04-17T10:23:32.496Z,6.40
2023-04-17T10:26:25.692Z,7.20
2023-04-17T10:28:53.387Z,7.50
2023-04-17T10:31:22.507Z,7.30
2023-04-17T10:33:53.509Z,7.20
2023-04-17T10:36:37.864Z,7.50
2023-04-17T10:39:15.627Z,6.90
2023-04-17T10:42:01.973Z,6.70
2023-04-17T10:44:35.241Z,6.10
2023-04-17T10:47:09.406Z,7.60
2023-04-17T10:49:57.597Z,6.70
2023-04-17T10:52:39.307Z,5.60
2023-04-17T10:55:07.161Z,7.00
2023-04-17T10:57:51.925Z,5.90
2023-04-17T11:00:20.984Z,6.30
2023-04-17T11:02:49.576Z,7.10
2023-04-17T11:05:20.556Z,6.30
2023-04-17T11:07:51.031Z,6.80
2023-04-17T11:10:19.126Z,6.80
2023-04-17T11:12:52.535Z,6.90
2023-04-17T11:15:30.000Z,7.30
2023-04-17T11:17:57.964Z,7.00
2023-04-17T11:20:30.159Z,6.40
2023-04-17T11:23:01.018Z,6.00
2023-04-17T11:25:32.878Z,5.90
2023-04-17T11:28:05.049Z,5.80
2023-04-17T11:30:36.474Z,5.10
2023-04-17T11:33:05.435Z,5.40
2023-04-17T11:35:34.116Z,5.40
2023-04-17T11:38:21.684Z,5.60
2023-04-17T11:40:54.082Z,4.80
2023-04-17T11:43:22.291Z,6.50
2023-04-17T11:45:58.842Z,6.10
2023-04-17T11:48:29.449Z,5.00
2023-04-17T11:50:58.505Z,5.50
2023-04-17T11:53:25.009Z,5.30
2023-04-17T11:56:13.090Z,5.10
2023-04-17T11:58:52.654Z,6.20
2023-04-17T12:01:23.840Z,5.40
2023-04-17T12:03:51.239Z,6.00
2023-04-17T12:06:17.790Z,5.50
2023-04-17T12:08:52.845Z,5.10
2023-04-17T12:11:26.648Z,5.10
2023-04-17T12:13:53.837Z,5.30
2023-04-17T12:16:21.736Z,5.30
2023-04-17T12:18:48.168Z,5.50
2023-04-17T12:21:14.736Z,4.20
2023-04-17T12:23:41.773Z,4.70
2023-04-17T12:26:08.886Z,5.80
2023-04-17T12:28:35.813Z,4.80
2023-04-17T12:31:03.833Z,4.70
2023-04-17T12:33:31.118Z,4.10
2023-04-17T12:35:58.140Z,4.00
2023-04-17T12:38:24.570Z,4.40
2023-04-17T12:40:50.822Z,4.20
2023-04-17T12:43:17.127Z,4.60
2023-04-17T12:45:46.527Z,5.10
2023-04-17T12:48:14.109Z,5.10
2023-04-17T12:50:44.951Z,3.80
2023-04-17T12:53:14.181Z,4.60
2023-04-17T12:55:42.797Z,5.00
2023-04-17T12:58:10.900Z,4.10
2023-04-17T13:00:39.075Z,3.20
2023-04-17T13:03:06.233Z,3.50
2023-04-17T13:05:34.190Z,3.70
2023-04-17T13:08:00.960Z,3.60
2023-04-17T13:10:27.349Z,4.70
2023-04-17T13:12:54.095Z,4.20
2023-04-17T13:15:21.108Z,3.20
2023-04-17T13:17:47.558Z,4.20
2023-04-17T13:20:13.906Z,5.00
2023-04-17T13:22:40.529Z,3.20
2023-04-17T13:25:07.492Z,4.00
2023-04-17T13:27:34.039Z,4.00
2023-04-17T13:30:00.306Z,3.40
2023-04-17T13:32:26.669Z,4.40
2023-04-17T13:34:53.204Z,3.80
2023-04-17T13:37:19.775Z,3.00
2023-04-17T13:39:46.576Z,2.20
2023-04-17T13:42:15.648Z,2.90
2023-04-17T13:44:43.490Z,3.20
2023-04-17T13:47:12.465Z,2.60
2023-04-17T13:49:38.738Z,2.70
2023-04-17T13:52:06.056Z,3.30
2023-04-17T13:54:32.424Z,2.70
2023-04-17T13:57:00.979Z,7.10
2023-04-17T13:59:27.445Z,4.10
2023-04-17T14:01:53.875Z,3.40
2023-04-17T14:04:21.033Z,3.10
2023-04-17T14:06:50.250Z,2.90
2023-04-17T14:09:17.122Z,3.40
2023-04-17T14:11:43.441Z,3.40
2023-04-17T14:14:12.064Z,3.00
2023-04-17T14:16:40.236Z,3.00
2023-04-17T14:21:39.482Z,3.30
2023-04-17T14:24:06.055Z,2.60
2023-04-17T14:26:32.471Z,3.90
2023-04-17T14:28:58.965Z,3.50
2023-04-17T14:31:25.289Z,2.60
2023-04-17T14:33:51.551Z,3.50
2023-04-17T14:36:17.980Z,3.30
2023-04-17T14:38:48.468Z,3.10
2023-04-17T14:41:16.041Z,3.50
2023-04-17T14:43:42.444Z,3.00
2023-04-17T14:46:08.967Z,3.10
2023-04-17T14:48:44.300Z,3.40
2023-04-17T14:51:22.356Z,3.50
2023-04-17T14:53:49.627Z,2.50
2023-04-17T14:56:16.462Z,4.00
2023-04-17T14:58:42.930Z,2.80
2023-04-17T15:01:09.883Z,3.90
2023-04-17T15:03:36.580Z,3.30
2023-04-17T15:06:03.494Z,3.80
2023-04-17T15:08:30.558Z,3.70
2023-04-17T15:10:58.017Z,3.30
2023-04-17T15:13:24.348Z,3.30
2023-04-17T15:15:52.149Z,4.10
2023-04-17T15:18:18.383Z,3.80
2023-04-17T15:20:45.503Z,3.60
2023-04-17T15:23:11.746Z,4.20
2023-04-17T15:25:38.278Z,4.40
2023-04-17T15:28:04.544Z,4.20
2023-04-17T15:30:30.766Z,3.00
2023-04-17T15:32:57.282Z,3.90
2023-04-17T15:35:23.632Z,3.00
2023-04-17T15:37:49.968Z,3.00
2023-04-17T15:40:16.242Z,3.90
2023-04-17T15:42:43.328Z,3.40
2023-04-17T15:45:10.232Z,2.80
2023-04-17T15:47:36.561Z,3.60
2023-04-17T15:50:03.214Z,3.20
2023-04-17T15:52:29.438Z,3.30
2023-04-17T15:54:55.746Z,4.60
2023-04-17T15:57:22.710Z,3.30
2023-04-17T15:59:49.097Z,3.30
2023-04-17T16:02:16.208Z,3.50
2023-04-17T16:04:43.064Z,3.40
2023-04-17T16:07:11.237Z,3.20
2023-04-17T16:09:39.148Z,2.80
2023-04-17T16:12:08.011Z,3.30
2023-04-17T16:14:35.535Z,3.00
2023-04-17T16:17:02.902Z,2.50
2023-04-17T16:19:30.213Z,3.20
2023-04-17T16:21:57.097Z,3.20
2023-04-17T16:24:24.260Z,3.40
2023-04-17T16:26:58.189Z,3.30
2023-04-17T16:29:25.460Z,3.70
2023-04-17T16:31:53.476Z,3.80
2023-04-17T16:34:20.220Z,3.40
2023-04-17T16:36:48.965Z,4.90
2023-04-17T16:39:15.641Z,3.80
2023-04-17T16:41:42.630Z,4.00
2023-04-17T16:44:09.252Z,4.20
2023-04-17T16:46:55.174Z,3.00
2023-04-17T16:49:22.082Z,3.80
2023-04-17T16:51:48.392Z,3.50
2023-04-17T16:54:15.000Z,5.50
2023-04-17T16:56:42.024Z,4.30
2023-04-17T16:59:08.343Z,3.10
2023-04-17T17:01:35.151Z,3.30
2023-04-17T17:04:01.529Z,3.20
2023-04-17T17:06:28.488Z,3.10
2023-04-17T17:08:55.481Z,3.50
2023-04-17T17:11:22.188Z,3.30
2023-04-17T17:13:49.396Z,2.80
2023-04-17T17:16:17.590Z,3.70
2023-04-17T17:18:45.051Z,4.30
2023-04-17T17:21:12.754Z,3.50
2023-04-17T17:23:42.124Z,2.70
2023-04-17T17:26:08.692Z,3.40
2023-04-17T17:28:35.202Z,4.60
2023-04-17T17:31:03.462Z,4.20
2023-04-17T17:33:32.016Z,3.00
2023-04-17T17:35:59.253Z,3.20
2023-04-17T17:38:31.667Z,3.10
2023-04-17T17:40:58.054Z,2.70
2023-04-17T17:43:24.506Z,2.70
2023-04-17T17:45:51.687Z,3.20
2023-04-17T17:48:19.618Z,2.20
2023-04-17T17:50:46.812Z,3.00
2023-04-17T17:53:13.483Z,2.50
2023-04-17T17:55:39.974Z,2.30
2023-04-17T17:58:08.100Z,2.10
2023-04-17T18:00:35.037Z,2.60
2023-04-17T18:03:01.483Z,2.40
2023-04-17T18:05:27.933Z,2.80
2023-04-17T18:07:54.698Z,2.50
2023-04-17T18:10:21.546Z,2.20
2023-04-17T18:12:48.513Z,2.20
2023-04-17T18:15:14.806Z,2.40
2023-04-17T18:17:41.156Z,2.50
2023-04-17T18:20:08.364Z,2.60
2023-04-17T18:22:37.309Z,2.00
2023-04-17T18:25:05.729Z,2.30
2023-04-17T18:27:35.045Z,2.20
2023-04-17T18:30:03.336Z,2.10
2023-04-17T18:32:31.037Z,2.80
2023-04-17T18:34:57.784Z,2.40
2023-04-17T18:37:24.579Z,2.40
2023-04-17T18:39:51.644Z,2.70
2023-04-17T18:42:18.676Z,2.10
2023-04-17T18:44:45.286Z,3.00
2023-04-17T18:47:12.011Z,2.70
2023-04-17T18:49:38.599Z,2.80
2023-04-17T18:52:05.066Z,2.30
2023-04-17T18:54:31.969Z,2.40
2023-04-17T18:56:58.739Z,2.40
2023-04-17T18:59:27.269Z,2.80
2023-04-17T19:01:53.962Z,2.30
2023-04-17T19:04:21.064Z,2.90
2023-04-17T19:06:47.554Z,2.00
2023-04-17T19:09:14.238Z,3.00
2023-04-17T19:11:40.589Z,2.70
2023-04-17T19:14:07.160Z,2.50
2023-04-17T19:16:33.774Z,2.90
2023-04-17T19:19:00.382Z,3.30
2023-04-17T19:21:27.665Z,2.80
2023-04-17T19:23:54.834Z,3.10
2023-04-17T19:26:22.258Z,2.50
2023-04-17T19:28:48.822Z,2.80
2023-04-17T19:31:15.204Z,3.50
2023-04-17T19:33:41.917Z,2.40
2023-04-17T19:36:08.549Z,2.60
2023-04-17T19:38:34.940Z,3.30
2023-04-17T19:41:18.897Z,3.10
2023-04-17T19:43:46.377Z,3.30
2023-04-17T19:46:13.533Z,2.70
2023-04-17T19:48:42.799Z,3.60
2023-04-17T19:51:10.155Z,3.30
2023-04-17T19:53:40.421Z,3.10
2023-04-17T19:56:08.820Z,3.00
2023-04-17T19:58:36.539Z,2.90
2023-04-17T20:01:03.331Z,3.20
2023-04-17T20:03:31.422Z,3.40
2023-04-17T20:05:58.549Z,3.90
2023-04-17T20:08:25.313Z,2.80
2023-04-17T20:10:52.679Z,3.10
2023-04-17T20:13:18.975Z,3.00
2023-04-17T20:15:45.333Z,3.50
2023-04-17T20:18:11.914Z,3.10
2023-04-17T20:20:38.544Z,3.60
2023-04-17T20:23:05.491Z,3.60
2023-04-17T20:25:32.020Z,4.00
2023-04-17T20:27:58.405Z,3.90
2023-04-17T20:30:24.831Z,3.50
2023-04-17T20:32:51.234Z,3.20
2023-04-17T20:35:20.030Z,3.10
2023-04-17T20:37:46.391Z,3.40
2023-04-17T20:40:13.558Z,3.90
2023-04-17T20:42:41.408Z,3.10
2023-04-17T20:45:09.343Z,3.70
2023-04-17T20:47:37.718Z,3.70
2023-04-17T20:50:07.825Z,3.00
2023-04-17T20:52:34.949Z,3.80
2023-04-17T20:55:01.217Z,3.30
2023-04-17T20:57:28.943Z,3.40
2023-04-17T20:59:55.514Z,3.60
2023-04-17T21:02:22.037Z,3.90
2023-04-17T21:04:48.881Z,4.10
2023-04-17T21:07:15.620Z,4.20
2023-04-17T21:09:42.162Z,3.80
2023-04-17T21:12:08.554Z,3.60
2023-04-17T21:14:35.897Z,4.50
2023-04-17T21:17:02.210Z,4.00
2023-04-17T21:19:30.078Z,4.80
2023-04-17T21:21:57.735Z,4.40
2023-04-17T21:24:24.580Z,4.30
2023-04-17T21:26:50.948Z,4.30
2023-04-17T21:29:17.167Z,4.80
2023-04-17T21:31:43.456Z,4.50
2023-04-17T21:34:09.975Z,4.10
2023-04-17T21:36:36.425Z,3.80
2023-04-17T21:39:02.754Z,3.90
2023-04-17T21:41:31.190Z,4.80
2023-04-17T21:44:02.004Z,4.60
2023-04-17T21:46:28.646Z,4.80
2023-04-17T21:48:56.464Z,5.00
2023-04-17T21:51:23.008Z,4.50
2023-04-17T21:53:49.683Z,4.80
2023-04-17T21:56:15.946Z,4.20
2023-04-17T21:58:42.236Z,5.40
2023-04-17T22:01:08.573Z,6.00
2023-04-17T22:03:35.211Z,4.30
2023-04-17T22:06:01.612Z,4.70
2023-04-17T22:08:27.894Z,6.10
2023-04-17T22:10:54.116Z,5.30
2023-04-17T22:13:20.661Z,5.20
2023-04-17T22:15:47.795Z,5.30
2023-04-17T22:18:14.535Z,4.90
2023-04-17T22:20:40.941Z,5.70
2023-04-17T22:23:07.373Z,5.60
2023-04-17T22:25:33.775Z,4.50
2023-04-17T22:28:00.358Z,4.20
2023-04-17T22:30:26.611Z,5.20
2023-04-17T22:32:52.879Z,5.20
2023-04-17T22:35:19.233Z,6.10
2023-04-17T22:37:45.551Z,5.00
2023-04-17T22:40:12.845Z,4.70
2023-04-17T22:42:39.511Z,5.10
2023-04-17T22:45:06.617Z,4.90
2023-04-17T22:47:32.919Z,5.00
2023-04-17T22:49:59.226Z,5.50
2023-04-17T22:52:25.486Z,4.90
2023-04-17T22:54:52.774Z,5.00
2023-04-17T22:57:19.323Z,5.20
2023-04-17T22:59:45.647Z,4.30
2023-04-17T23:02:12.024Z,5.10
2023-04-17T23:04:38.659Z,4.70
2023-04-17T23:07:05.043Z,4.60
2023-04-17T23:09:31.338Z,7.60
2023-04-17T23:11:57.677Z,4.30
2023-04-17T23:14:25.629Z,6.60
2023-04-17T23:16:52.204Z,6.00
2023-04-17T23:19:20.415Z,6.00
2023-04-17T23:21:46.702Z,5.00
2023-04-17T23:24:13.066Z,7.10
2023-04-17T23:26:39.630Z,6.80
2023-04-17T23:29:05.925Z,6.50
2023-04-17T23:31:32.272Z,6.40
2023-04-17T23:33:58.625Z,6.10
2023-04-17T23:36:24.980Z,6.50
2023-04-17T23:38:51.423Z,6.20
2023-04-17T23:41:17.669Z,6.50
2023-04-17T23:43:44.266Z,7.70
2023-04-17T23:46:10.648Z,6.00
2023-04-17T23:48:36.993Z,6.00
2023-04-17T23:51:03.644Z,6.30
2023-04-17T23:53:30.003Z,5.70
2023-04-17T23:55:56.432Z,6.50
2023-04-17T23:58:22.653Z,7.40
